<?xml version="1.0" encoding="UTF-8" standalone="no" ?>
<gpx xmlns="http://www.topografix.com/GPX/1/1" xmlns:xsi="http://www.w3.org/2001/XMLSchema-instance" xsi:schemaLocation="http://www.topografix.com/GPX/1/1 http://www.topografix.com/GPX/1/1/gpx.xsd" version="1.1" creator="VisuGPX - https://www.visugpx.com">
  <metadata>
    <name>Col de Beyrede</name>
  </metadata>
  <trk>
    <name><![CDATA[Col de Beyrede]]></name>
    <trkseg>
      <trkpt lat="42.96693" lon="0.37676">
        <ele>638.979895</ele>
        <time>2022-05-26T17:49:25.006Z</time>
      </trkpt>
      <trkpt lat="42.9667" lon="0.37687">
        <ele>638.979895</ele>
        <time>2022-05-26T17:49:28.341Z</time>
      </trkpt>
      <trkpt lat="42.96667" lon="0.37689">
        <ele>638.979895</ele>
        <time>2022-05-26T17:49:28.845Z</time>
      </trkpt>
      <trkpt lat="42.96654" lon="0.37696">
        <ele>638.979895</ele>
        <time>2022-05-26T17:49:30.772Z</time>
      </trkpt>
      <trkpt lat="42.96642" lon="0.37702">
        <ele>638.979895</ele>
        <time>2022-05-26T17:49:32.653Z</time>
      </trkpt>
      <trkpt lat="42.96638" lon="0.37704">
        <ele>638.979895</ele>
        <time>2022-05-26T17:49:33.298Z</time>
      </trkpt>
      <trkpt lat="42.96611" lon="0.37718">
        <ele>638.979895</ele>
        <time>2022-05-26T17:49:37.343Z</time>
      </trkpt>
      <trkpt lat="42.9657" lon="0.37739">
        <ele>638.958417</ele>
        <time>2022-05-26T17:49:43.716Z</time>
      </trkpt>
      <trkpt lat="42.96553" lon="0.37751">
        <ele>638.948454</ele>
        <time>2022-05-26T17:49:46.496Z</time>
      </trkpt>
      <trkpt lat="42.96408" lon="0.3783">
        <ele>638.788889</ele>
        <time>2022-05-26T17:50:09.510Z</time>
      </trkpt>
      <trkpt lat="42.96405" lon="0.37831">
        <ele>638.782511</ele>
        <time>2022-05-26T17:50:09.894Z</time>
      </trkpt>
      <trkpt lat="42.96313" lon="0.3788">
        <ele>638.522703</ele>
        <time>2022-05-26T17:50:23.808Z</time>
      </trkpt>
      <trkpt lat="42.96312" lon="0.37881">
        <ele>638.519763</ele>
        <time>2022-05-26T17:50:23.962Z</time>
      </trkpt>
      <trkpt lat="42.96303" lon="0.37885">
        <ele>638.494374</ele>
        <time>2022-05-26T17:50:25.287Z</time>
      </trkpt>
      <trkpt lat="42.96301" lon="0.37886">
        <ele>638.489288</ele>
        <time>2022-05-26T17:50:25.547Z</time>
      </trkpt>
      <trkpt lat="42.96234" lon="0.37922">
        <ele>638.609342</ele>
        <time>2022-05-26T17:50:34.783Z</time>
      </trkpt>
      <trkpt lat="42.96205" lon="0.37932">
        <ele>638.746416</ele>
        <time>2022-05-26T17:50:38.973Z</time>
      </trkpt>
      <trkpt lat="42.96165" lon="0.37936">
        <ele>638.924671</ele>
        <time>2022-05-26T17:50:45.843Z</time>
      </trkpt>
      <trkpt lat="42.9609" lon="0.37933">
        <ele>639.364169</ele>
        <time>2022-05-26T17:51:00.581Z</time>
      </trkpt>
      <trkpt lat="42.96084" lon="0.3787">
        <ele>640.104077</ele>
        <time>2022-05-26T17:51:10.780Z</time>
      </trkpt>
      <trkpt lat="42.96082" lon="0.3783">
        <ele>640.582119</ele>
        <time>2022-05-26T17:51:17.884Z</time>
      </trkpt>
      <trkpt lat="42.96091" lon="0.3778">
        <ele>641.179018</ele>
        <time>2022-05-26T17:51:26.039Z</time>
      </trkpt>
      <trkpt lat="42.96091" lon="0.37748">
        <ele>641.548594</ele>
        <time>2022-05-26T17:51:31.097Z</time>
      </trkpt>
      <trkpt lat="42.96085" lon="0.37723">
        <ele>641.855809</ele>
        <time>2022-05-26T17:51:34.185Z</time>
      </trkpt>
      <trkpt lat="42.96079" lon="0.37716">
        <ele>641.991309</ele>
        <time>2022-05-26T17:51:37.063Z</time>
      </trkpt>
      <trkpt lat="42.9607" lon="0.37713">
        <ele>642.141735</ele>
        <time>2022-05-26T17:51:38.824Z</time>
      </trkpt>
      <trkpt lat="42.96051" lon="0.37722">
        <ele>642.465035</ele>
        <time>2022-05-26T17:51:42.164Z</time>
      </trkpt>
      <trkpt lat="42.96021" lon="0.37803">
        <ele>643.56379</ele>
        <time>2022-05-26T17:51:54.746Z</time>
      </trkpt>
      <trkpt lat="42.95992" lon="0.37822">
        <ele>644.08757</ele>
        <time>2022-05-26T17:52:00.855Z</time>
      </trkpt>
      <trkpt lat="42.95967" lon="0.3783">
        <ele>644.506091</ele>
        <time>2022-05-26T17:52:06.666Z</time>
      </trkpt>
      <trkpt lat="42.959" lon="0.37828">
        <ele>647.601258</ele>
        <time>2022-05-26T17:52:22.477Z</time>
      </trkpt>
      <trkpt lat="42.95862" lon="0.3782">
        <ele>650.606194</ele>
        <time>2022-05-26T17:52:37.222Z</time>
      </trkpt>
      <trkpt lat="42.95835" lon="0.37805">
        <ele>652.844534</ele>
        <time>2022-05-26T17:52:51.398Z</time>
      </trkpt>
      <trkpt lat="42.95792" lon="0.37746">
        <ele>657.501309</ele>
        <time>2022-05-26T17:53:29.230Z</time>
      </trkpt>
      <trkpt lat="42.9578" lon="0.37719">
        <ele>659.363669</ele>
        <time>2022-05-26T17:53:43.761Z</time>
      </trkpt>
      <trkpt lat="42.95776" lon="0.37711">
        <ele>659.935624</ele>
        <time>2022-05-26T17:53:47.612Z</time>
      </trkpt>
      <trkpt lat="42.95751" lon="0.37643">
        <ele>664.601289</ele>
        <time>2022-05-26T17:54:15.630Z</time>
      </trkpt>
      <trkpt lat="42.95734" lon="0.376">
        <ele>667.636302</ele>
        <time>2022-05-26T17:54:33.554Z</time>
      </trkpt>
      <trkpt lat="42.95736" lon="0.37591">
        <ele>668.248169</ele>
        <time>2022-05-26T17:54:37.897Z</time>
      </trkpt>
      <trkpt lat="42.95737" lon="0.37584">
        <ele>668.672873</ele>
        <time>2022-05-26T17:54:40.952Z</time>
      </trkpt>
      <trkpt lat="42.95751" lon="0.37591">
        <ele>669.942383</ele>
        <time>2022-05-26T17:54:47.721Z</time>
      </trkpt>
      <trkpt lat="42.95768" lon="0.37599">
        <ele>671.470171</ele>
        <time>2022-05-26T17:54:56.993Z</time>
      </trkpt>
      <trkpt lat="42.95791" lon="0.37621">
        <ele>673.810595</ele>
        <time>2022-05-26T17:55:09.135Z</time>
      </trkpt>
      <trkpt lat="42.95807" lon="0.37637">
        <ele>674.959909</ele>
        <time>2022-05-26T17:55:18.036Z</time>
      </trkpt>
      <trkpt lat="42.95815" lon="0.37647">
        <ele>675.565736</ele>
        <time>2022-05-26T17:55:22.725Z</time>
      </trkpt>
      <trkpt lat="42.9583" lon="0.37654">
        <ele>676.422407</ele>
        <time>2022-05-26T17:55:30.915Z</time>
      </trkpt>
      <trkpt lat="42.95882" lon="0.37653">
        <ele>679.262855</ele>
        <time>2022-05-26T17:55:49.818Z</time>
      </trkpt>
      <trkpt lat="42.95908" lon="0.37645">
        <ele>680.693576</ele>
        <time>2022-05-26T17:55:58.103Z</time>
      </trkpt>
      <trkpt lat="42.95939" lon="0.37624">
        <ele>682.589501</ele>
        <time>2022-05-26T17:56:11.794Z</time>
      </trkpt>
      <trkpt lat="42.95967" lon="0.3761">
        <ele>684.409655</ele>
        <time>2022-05-26T17:56:26.673Z</time>
      </trkpt>
      <trkpt lat="42.95989" lon="0.37584">
        <ele>686.605446</ele>
        <time>2022-05-26T17:56:41.919Z</time>
      </trkpt>
      <trkpt lat="42.95983" lon="0.37542">
        <ele>688.937727</ele>
        <time>2022-05-26T17:56:58.710Z</time>
      </trkpt>
      <trkpt lat="42.95998" lon="0.37404">
        <ele>696.714963</ele>
        <time>2022-05-26T17:57:54.079Z</time>
      </trkpt>
      <trkpt lat="42.96019" lon="0.37353">
        <ele>698.964083</ele>
        <time>2022-05-26T17:58:13.358Z</time>
      </trkpt>
      <trkpt lat="42.96064" lon="0.37288">
        <ele>701.905314</ele>
        <time>2022-05-26T17:58:38.013Z</time>
      </trkpt>
      <trkpt lat="42.96085" lon="0.37247">
        <ele>703.54443</ele>
        <time>2022-05-26T17:58:50.529Z</time>
      </trkpt>
      <trkpt lat="42.9609" lon="0.37202">
        <ele>705.032111</ele>
        <time>2022-05-26T17:59:01.543Z</time>
      </trkpt>
      <trkpt lat="42.96116" lon="0.37104">
        <ele>708.374989</ele>
        <time>2022-05-26T17:59:25.771Z</time>
      </trkpt>
      <trkpt lat="42.96103" lon="0.36959">
        <ele>712.985076</ele>
        <time>2022-05-26T18:00:06.233Z</time>
      </trkpt>
      <trkpt lat="42.9611" lon="0.36815">
        <ele>720.972547</ele>
        <time>2022-05-26T18:00:58.503Z</time>
      </trkpt>
      <trkpt lat="42.96085" lon="0.36723">
        <ele>726.631705</ele>
        <time>2022-05-26T18:01:40.284Z</time>
      </trkpt>
      <trkpt lat="42.96085" lon="0.36695">
        <ele>728.221</ele>
        <time>2022-05-26T18:01:51.862Z</time>
      </trkpt>
      <trkpt lat="42.96065" lon="0.36562">
        <ele>735.862732</ele>
        <time>2022-05-26T18:02:44.450Z</time>
      </trkpt>
      <trkpt lat="42.96058" lon="0.3648">
        <ele>740.535134</ele>
        <time>2022-05-26T18:03:13.516Z</time>
      </trkpt>
      <trkpt lat="42.96075" lon="0.36407">
        <ele>743.556015</ele>
        <time>2022-05-26T18:03:38.715Z</time>
      </trkpt>
      <trkpt lat="42.96079" lon="0.36359">
        <ele>745.269781</ele>
        <time>2022-05-26T18:03:52.895Z</time>
      </trkpt>
      <trkpt lat="42.96096" lon="0.36316">
        <ele>747.003246</ele>
        <time>2022-05-26T18:04:05.884Z</time>
      </trkpt>
      <trkpt lat="42.961" lon="0.36266">
        <ele>748.805311</ele>
        <time>2022-05-26T18:04:18.841Z</time>
      </trkpt>
      <trkpt lat="42.96091" lon="0.36231">
        <ele>750.10718</ele>
        <time>2022-05-26T18:04:28.310Z</time>
      </trkpt>
      <trkpt lat="42.96058" lon="0.36167">
        <ele>752.774091</ele>
        <time>2022-05-26T18:04:50.187Z</time>
      </trkpt>
      <trkpt lat="42.96071" lon="0.36139">
        <ele>753.924381</ele>
        <time>2022-05-26T18:05:00.161Z</time>
      </trkpt>
      <trkpt lat="42.96122" lon="0.36066">
        <ele>757.351199</ele>
        <time>2022-05-26T18:05:29.312Z</time>
      </trkpt>
      <trkpt lat="42.96132" lon="0.35983">
        <ele>760.727351</ele>
        <time>2022-05-26T18:05:53.447Z</time>
      </trkpt>
      <trkpt lat="42.96147" lon="0.35904">
        <ele>764.342756</ele>
        <time>2022-05-26T18:06:18.511Z</time>
      </trkpt>
      <trkpt lat="42.96199" lon="0.35762">
        <ele>771.802732</ele>
        <time>2022-05-26T18:07:14.554Z</time>
      </trkpt>
      <trkpt lat="42.96222" lon="0.35646">
        <ele>778.455669</ele>
        <time>2022-05-26T18:07:58.123Z</time>
      </trkpt>
      <trkpt lat="42.96263" lon="0.35498">
        <ele>787.070443</ele>
        <time>2022-05-26T18:08:59.827Z</time>
      </trkpt>
      <trkpt lat="42.96262" lon="0.35476">
        <ele>788.274707</ele>
        <time>2022-05-26T18:09:08.241Z</time>
      </trkpt>
      <trkpt lat="42.96206" lon="0.35341">
        <ele>796.455333</ele>
        <time>2022-05-26T18:10:03.506Z</time>
      </trkpt>
      <trkpt lat="42.96192" lon="0.35283">
        <ele>798.722273</ele>
        <time>2022-05-26T18:10:22.551Z</time>
      </trkpt>
      <trkpt lat="42.9619" lon="0.3526">
        <ele>799.562081</ele>
        <time>2022-05-26T18:10:29.284Z</time>
      </trkpt>
      <trkpt lat="42.96144" lon="0.35213">
        <ele>802.494494</ele>
        <time>2022-05-26T18:10:51.372Z</time>
      </trkpt>
      <trkpt lat="42.96114" lon="0.35151">
        <ele>805.302205</ele>
        <time>2022-05-26T18:11:10.586Z</time>
      </trkpt>
      <trkpt lat="42.961" lon="0.35099">
        <ele>808.355646</ele>
        <time>2022-05-26T18:11:25.763Z</time>
      </trkpt>
      <trkpt lat="42.96047" lon="0.34961">
        <ele>817.015819</ele>
        <time>2022-05-26T18:12:23.223Z</time>
      </trkpt>
      <trkpt lat="42.96029" lon="0.34928">
        <ele>819.757499</ele>
        <time>2022-05-26T18:12:42.841Z</time>
      </trkpt>
      <trkpt lat="42.95924" lon="0.34843">
        <ele>836.143681</ele>
        <time>2022-05-26T18:14:14.346Z</time>
      </trkpt>
      <trkpt lat="42.95891" lon="0.34801">
        <ele>842.214715</ele>
        <time>2022-05-26T18:14:52.390Z</time>
      </trkpt>
      <trkpt lat="42.95821" lon="0.34506">
        <ele>872.827602</ele>
        <time>2022-05-26T18:17:44.775Z</time>
      </trkpt>
      <trkpt lat="42.9579" lon="0.344">
        <ele>882.305377</ele>
        <time>2022-05-26T18:18:36.197Z</time>
      </trkpt>
      <trkpt lat="42.95794" lon="0.34367">
        <ele>885.156649</ele>
        <time>2022-05-26T18:18:51.455Z</time>
      </trkpt>
      <trkpt lat="42.95789" lon="0.34286">
        <ele>892.474364</ele>
        <time>2022-05-26T18:19:28.087Z</time>
      </trkpt>
      <trkpt lat="42.95795" lon="0.34234">
        <ele>897.562241</ele>
        <time>2022-05-26T18:19:54.380Z</time>
      </trkpt>
      <trkpt lat="42.95791" lon="0.34208">
        <ele>900.231279</ele>
        <time>2022-05-26T18:20:09.996Z</time>
      </trkpt>
      <trkpt lat="42.95743" lon="0.34155">
        <ele>908.424103</ele>
        <time>2022-05-26T18:21:00.219Z</time>
      </trkpt>
      <trkpt lat="42.95656" lon="0.34019">
        <ele>925.596828</ele>
        <time>2022-05-26T18:22:42.094Z</time>
      </trkpt>
      <trkpt lat="42.95648" lon="0.3399">
        <ele>928.493231</ele>
        <time>2022-05-26T18:22:57.501Z</time>
      </trkpt>
      <trkpt lat="42.9564" lon="0.33983">
        <ele>929.716766</ele>
        <time>2022-05-26T18:23:04.316Z</time>
      </trkpt>
      <trkpt lat="42.95633" lon="0.33994">
        <ele>931.150967</ele>
        <time>2022-05-26T18:23:12.063Z</time>
      </trkpt>
      <trkpt lat="42.95652" lon="0.34066">
        <ele>937.604173</ele>
        <time>2022-05-26T18:23:48.074Z</time>
      </trkpt>
      <trkpt lat="42.95643" lon="0.34116">
        <ele>941.055723</ele>
        <time>2022-05-26T18:24:07.645Z</time>
      </trkpt>
      <trkpt lat="42.95627" lon="0.34149">
        <ele>943.742524</ele>
        <time>2022-05-26T18:24:22.164Z</time>
      </trkpt>
      <trkpt lat="42.95606" lon="0.34215">
        <ele>948.645899</ele>
        <time>2022-05-26T18:24:51.877Z</time>
      </trkpt>
      <trkpt lat="42.95558" lon="0.34255">
        <ele>954.068544</ele>
        <time>2022-05-26T18:25:25.138Z</time>
      </trkpt>
      <trkpt lat="42.95547" lon="0.34295">
        <ele>957.299074</ele>
        <time>2022-05-26T18:25:42.139Z</time>
      </trkpt>
      <trkpt lat="42.9554" lon="0.34299">
        <ele>958.109259</ele>
        <time>2022-05-26T18:25:49.120Z</time>
      </trkpt>
      <trkpt lat="42.95545" lon="0.3426">
        <ele>961.187255</ele>
        <time>2022-05-26T18:26:05.365Z</time>
      </trkpt>
      <trkpt lat="42.95542" lon="0.34237">
        <ele>962.969041</ele>
        <time>2022-05-26T18:26:16.971Z</time>
      </trkpt>
      <trkpt lat="42.95569" lon="0.34193">
        <ele>967.380207</ele>
        <time>2022-05-26T18:26:42.046Z</time>
      </trkpt>
      <trkpt lat="42.95573" lon="0.34154">
        <ele>970.33791</ele>
        <time>2022-05-26T18:27:01.015Z</time>
      </trkpt>
      <trkpt lat="42.95593" lon="0.34122">
        <ele>973.778228</ele>
        <time>2022-05-26T18:27:23.278Z</time>
      </trkpt>
      <trkpt lat="42.95589" lon="0.34091">
        <ele>976.336749</ele>
        <time>2022-05-26T18:27:39.360Z</time>
      </trkpt>
      <trkpt lat="42.95551" lon="0.34025">
        <ele>983.26526</ele>
        <time>2022-05-26T18:28:16.854Z</time>
      </trkpt>
      <trkpt lat="42.95483" lon="0.33983">
        <ele>991.612869</ele>
        <time>2022-05-26T18:29:05.919Z</time>
      </trkpt>
      <trkpt lat="42.95481" lon="0.33965">
        <ele>992.803017</ele>
        <time>2022-05-26T18:29:15.859Z</time>
      </trkpt>
      <trkpt lat="42.95513" lon="0.33916">
        <ele>997.204268</ele>
        <time>2022-05-26T18:29:47.096Z</time>
      </trkpt>
      <trkpt lat="42.95514" lon="0.33895">
        <ele>998.606828</ele>
        <time>2022-05-26T18:29:56.791Z</time>
      </trkpt>
      <trkpt lat="42.95487" lon="0.33811">
        <ele>1004.703151</ele>
        <time>2022-05-26T18:30:34.291Z</time>
      </trkpt>
      <trkpt lat="42.95427" lon="0.33757">
        <ele>1010.266991</ele>
        <time>2022-05-26T18:31:04.158Z</time>
      </trkpt>
      <trkpt lat="42.95421" lon="0.33738">
        <ele>1011.258414</ele>
        <time>2022-05-26T18:31:10.033Z</time>
      </trkpt>
      <trkpt lat="42.95435" lon="0.33712">
        <ele>1012.830397</ele>
        <time>2022-05-26T18:31:19.819Z</time>
      </trkpt>
      <trkpt lat="42.95475" lon="0.33679">
        <ele>1015.870051</ele>
        <time>2022-05-26T18:31:42.335Z</time>
      </trkpt>
      <trkpt lat="42.9548" lon="0.33668">
        <ele>1016.525377</ele>
        <time>2022-05-26T18:31:47.046Z</time>
      </trkpt>
      <trkpt lat="42.95495" lon="0.3357">
        <ele>1021.472231</ele>
        <time>2022-05-26T18:32:24.371Z</time>
      </trkpt>
      <trkpt lat="42.95517" lon="0.33493">
        <ele>1025.899216</ele>
        <time>2022-05-26T18:32:52.369Z</time>
      </trkpt>
      <trkpt lat="42.95525" lon="0.33443">
        <ele>1028.61155</ele>
        <time>2022-05-26T18:33:10.542Z</time>
      </trkpt>
      <trkpt lat="42.95534" lon="0.33435">
        <ele>1029.385291</ele>
        <time>2022-05-26T18:33:15.090Z</time>
      </trkpt>
      <trkpt lat="42.95552" lon="0.33432">
        <ele>1030.686636</ele>
        <time>2022-05-26T18:33:24.891Z</time>
      </trkpt>
      <trkpt lat="42.95639" lon="0.33368">
        <ele>1037.77035</ele>
        <time>2022-05-26T18:34:16.716Z</time>
      </trkpt>
      <trkpt lat="42.95671" lon="0.33335">
        <ele>1040.659674</ele>
        <time>2022-05-26T18:34:33.869Z</time>
      </trkpt>
      <trkpt lat="42.95716" lon="0.33248">
        <ele>1046.499662</ele>
        <time>2022-05-26T18:35:10.212Z</time>
      </trkpt>
      <trkpt lat="42.95766" lon="0.33221">
        <ele>1052.127233</ele>
        <time>2022-05-26T18:35:39.241Z</time>
      </trkpt>
      <trkpt lat="42.95817" lon="0.3316">
        <ele>1059.223151</ele>
        <time>2022-05-26T18:36:25.665Z</time>
      </trkpt>
      <trkpt lat="42.95864" lon="0.33114">
        <ele>1065.251731</ele>
        <time>2022-05-26T18:37:06.182Z</time>
      </trkpt>
      <trkpt lat="42.95905" lon="0.33104">
        <ele>1069.561497</ele>
        <time>2022-05-26T18:37:33.767Z</time>
      </trkpt>
      <trkpt lat="42.95943" lon="0.33065">
        <ele>1074.465289</ele>
        <time>2022-05-26T18:38:03.028Z</time>
      </trkpt>
      <trkpt lat="42.95986" lon="0.33052">
        <ele>1079.119585</ele>
        <time>2022-05-26T18:38:28.219Z</time>
      </trkpt>
      <trkpt lat="42.95999" lon="0.33043">
        <ele>1080.6124</ele>
        <time>2022-05-26T18:38:36.266Z</time>
      </trkpt>
      <trkpt lat="42.95999" lon="0.33024">
        <ele>1082.086567</ele>
        <time>2022-05-26T18:38:45.424Z</time>
      </trkpt>
      <trkpt lat="42.95984" lon="0.3301">
        <ele>1084.08924</ele>
        <time>2022-05-26T18:38:55.431Z</time>
      </trkpt>
      <trkpt lat="42.95942" lon="0.32996">
        <ele>1089.134766</ele>
        <time>2022-05-26T18:39:20.643Z</time>
      </trkpt>
      <trkpt lat="42.95936" lon="0.32987">
        <ele>1090.164641</ele>
        <time>2022-05-26T18:39:25.905Z</time>
      </trkpt>
      <trkpt lat="42.95936" lon="0.32976">
        <ele>1091.120931</ele>
        <time>2022-05-26T18:39:30.024Z</time>
      </trkpt>
      <trkpt lat="42.95947" lon="0.32893">
        <ele>1098.40444</ele>
        <time>2022-05-26T18:40:10.043Z</time>
      </trkpt>
      <trkpt lat="42.95982" lon="0.32861">
        <ele>1103.469434</ele>
        <time>2022-05-26T18:40:42.357Z</time>
      </trkpt>
      <trkpt lat="42.96" lon="0.32789">
        <ele>1113.298394</ele>
        <time>2022-05-26T18:41:30.835Z</time>
      </trkpt>
      <trkpt lat="42.96023" lon="0.32738">
        <ele>1121.513121</ele>
        <time>2022-05-26T18:42:14.343Z</time>
      </trkpt>
      <trkpt lat="42.96066" lon="0.3265">
        <ele>1135.896035</ele>
        <time>2022-05-26T18:43:34.021Z</time>
      </trkpt>
      <trkpt lat="42.96106" lon="0.32547">
        <ele>1151.619836</ele>
        <time>2022-05-26T18:44:57.756Z</time>
      </trkpt>
      <trkpt lat="42.96154" lon="0.32403">
        <ele>1172.342037</ele>
        <time>2022-05-26T18:46:41.983Z</time>
      </trkpt>
      <trkpt lat="42.96155" lon="0.32387">
        <ele>1174.103412</ele>
        <time>2022-05-26T18:46:52.081Z</time>
      </trkpt>
      <trkpt lat="42.9614" lon="0.32372">
        <ele>1176.964772</ele>
        <time>2022-05-26T18:47:08.909Z</time>
      </trkpt>
      <trkpt lat="42.96103" lon="0.32388">
        <ele>1182.832831</ele>
        <time>2022-05-26T18:47:40.991Z</time>
      </trkpt>
      <trkpt lat="42.96008" lon="0.32448">
        <ele>1198.628735</ele>
        <time>2022-05-26T18:48:57.425Z</time>
      </trkpt>
      <trkpt lat="42.95965" lon="0.32484">
        <ele>1206.400848</ele>
        <time>2022-05-26T18:49:41.830Z</time>
      </trkpt>
      <trkpt lat="42.95961" lon="0.32481">
        <ele>1207.061812</ele>
        <time>2022-05-26T18:49:45.412Z</time>
      </trkpt>
      <trkpt lat="42.95962" lon="0.32469">
        <ele>1208.336974</ele>
        <time>2022-05-26T18:49:53.040Z</time>
      </trkpt>
      <trkpt lat="42.95984" lon="0.3244">
        <ele>1213.117508</ele>
        <time>2022-05-26T18:50:19.062Z</time>
      </trkpt>
      <trkpt lat="42.96006" lon="0.32399">
        <ele>1218.780484</ele>
        <time>2022-05-26T18:50:48.843Z</time>
      </trkpt>
      <trkpt lat="42.96014" lon="0.32373">
        <ele>1222.015328</ele>
        <time>2022-05-26T18:51:06.645Z</time>
      </trkpt>
      <trkpt lat="42.96034" lon="0.32311">
        <ele>1229.261437</ele>
        <time>2022-05-26T18:51:44.863Z</time>
      </trkpt>
      <trkpt lat="42.96036" lon="0.32277">
        <ele>1232.714528</ele>
        <time>2022-05-26T18:52:05.480Z</time>
      </trkpt>
      <trkpt lat="42.96057" lon="0.32243">
        <ele>1237.243418</ele>
        <time>2022-05-26T18:52:33.124Z</time>
      </trkpt>
      <trkpt lat="42.96065" lon="0.32222">
        <ele>1239.661934</ele>
        <time>2022-05-26T18:52:47.319Z</time>
      </trkpt>
      <trkpt lat="42.96078" lon="0.32157">
        <ele>1246.504676</ele>
        <time>2022-05-26T18:53:27.739Z</time>
      </trkpt>
      <trkpt lat="42.96117" lon="0.3212">
        <ele>1251.903031</ele>
        <time>2022-05-26T18:53:55.748Z</time>
      </trkpt>
      <trkpt lat="42.96137" lon="0.32087">
        <ele>1254.025089</ele>
        <time>2022-05-26T18:54:11.948Z</time>
      </trkpt>
      <trkpt lat="42.9624" lon="0.31869">
        <ele>1264.183119</ele>
        <time>2022-05-26T18:55:33.066Z</time>
      </trkpt>
      <trkpt lat="42.96258" lon="0.31872">
        <ele>1264.52438</ele>
        <time>2022-05-26T18:55:37.904Z</time>
      </trkpt>
      <trkpt lat="42.96305" lon="0.31927">
        <ele>1265.695955</ele>
        <time>2022-05-26T18:55:50.719Z</time>
      </trkpt>
      <trkpt lat="42.96297" lon="0.31985">
        <ele>1266.491457</ele>
        <time>2022-05-26T18:55:58.811Z</time>
      </trkpt>
      <trkpt lat="42.96296" lon="0.32052">
        <ele>1266.804677</ele>
        <time>2022-05-26T18:56:07.221Z</time>
      </trkpt>
      <trkpt lat="42.96322" lon="0.32139">
        <ele>1267.241954</ele>
        <time>2022-05-26T18:56:19.523Z</time>
      </trkpt>
      <trkpt lat="42.96351" lon="0.32348">
        <ele>1275.182145</ele>
        <time>2022-05-26T18:57:11.284Z</time>
      </trkpt>
      <trkpt lat="42.96359" lon="0.32352">
        <ele>1275.863918</ele>
        <time>2022-05-26T18:57:16.248Z</time>
      </trkpt>
      <trkpt lat="42.96364" lon="0.32344">
        <ele>1276.461249</ele>
        <time>2022-05-26T18:57:21.348Z</time>
      </trkpt>
      <trkpt lat="42.96355" lon="0.32264">
        <ele>1281.175234</ele>
        <time>2022-05-26T18:58:01.935Z</time>
      </trkpt>
      <trkpt lat="42.96368" lon="0.32049">
        <ele>1307.704043</ele>
        <time>2022-05-26T19:00:20.789Z</time>
      </trkpt>
      <trkpt lat="42.96382" lon="0.31981">
        <ele>1316.686246</ele>
        <time>2022-05-26T19:01:16.448Z</time>
      </trkpt>
      <trkpt lat="42.96432" lon="0.31861">
        <ele>1334.681298</ele>
        <time>2022-05-26T19:02:56.092Z</time>
      </trkpt>
      <trkpt lat="42.96455" lon="0.31792">
        <ele>1344.555071</ele>
        <time>2022-05-26T19:03:40.256Z</time>
      </trkpt>
      <trkpt lat="42.96465" lon="0.31724">
        <ele>1349.128856</ele>
        <time>2022-05-26T19:04:17.924Z</time>
      </trkpt>
      <trkpt lat="42.96465" lon="0.31705">
        <ele>1350.299012</ele>
        <time>2022-05-26T19:04:25.768Z</time>
      </trkpt>
      <trkpt lat="42.96452" lon="0.31667">
        <ele>1352.929558</ele>
        <time>2022-05-26T19:04:42.290Z</time>
      </trkpt>
      <trkpt lat="42.9645" lon="0.31646">
        <ele>1354.280828</ele>
        <time>2022-05-26T19:04:49.169Z</time>
      </trkpt>
      <trkpt lat="42.9641" lon="0.31594">
        <ele>1358.978921</ele>
        <time>2022-05-26T19:05:11.212Z</time>
      </trkpt>
      <trkpt lat="42.96415" lon="0.31582">
        <ele>1359.880921</ele>
        <time>2022-05-26T19:05:15.116Z</time>
      </trkpt>
      <trkpt lat="42.96421" lon="0.31581">
        <ele>1360.383441</ele>
        <time>2022-05-26T19:05:17.453Z</time>
      </trkpt>
      <trkpt lat="42.96485" lon="0.31627">
        <ele>1363.558308</ele>
        <time>2022-05-26T19:05:46.340Z</time>
      </trkpt>
      <trkpt lat="42.96517" lon="0.31667">
        <ele>1365.471004</ele>
        <time>2022-05-26T19:06:02.951Z</time>
      </trkpt>
      <trkpt lat="42.96522" lon="0.31758">
        <ele>1368.412915</ele>
        <time>2022-05-26T19:06:27.314Z</time>
      </trkpt>
      <trkpt lat="42.96518" lon="0.31819">
        <ele>1370.218841</ele>
        <time>2022-05-26T19:06:41.454Z</time>
      </trkpt>
      <trkpt lat="42.96507" lon="0.31917">
        <ele>1373.109743</ele>
        <time>2022-05-26T19:07:09.047Z</time>
      </trkpt>
      <trkpt lat="42.96492" lon="0.31999">
        <ele>1375.620936</ele>
        <time>2022-05-26T19:07:29.653Z</time>
      </trkpt>
      <trkpt lat="42.96493" lon="0.32017">
        <ele>1376.684222</ele>
        <time>2022-05-26T19:07:33.960Z</time>
      </trkpt>
      <trkpt lat="42.96502" lon="0.32024">
        <ele>1377.513154</ele>
        <time>2022-05-26T19:07:38.411Z</time>
      </trkpt>
      <trkpt lat="42.96516" lon="0.31999">
        <ele>1379.32584</ele>
        <time>2022-05-26T19:07:48.278Z</time>
      </trkpt>
      <trkpt lat="42.9652" lon="0.31949">
        <ele>1382.260959</ele>
        <time>2022-05-26T19:08:07.067Z</time>
      </trkpt>
      <trkpt lat="42.96535" lon="0.31876">
        <ele>1386.664345</ele>
        <time>2022-05-26T19:08:40.641Z</time>
      </trkpt>
      <trkpt lat="42.96574" lon="0.31731">
        <ele>1395.065835</ele>
        <time>2022-05-26T19:09:49.556Z</time>
      </trkpt>
      <trkpt lat="42.96582" lon="0.31668">
        <ele>1398.361415</ele>
        <time>2022-05-26T19:10:12.972Z</time>
      </trkpt>
      <trkpt lat="42.96598" lon="0.31618">
        <ele>1401.185232</ele>
        <time>2022-05-26T19:10:29.427Z</time>
      </trkpt>
      <trkpt lat="42.96596" lon="0.31608">
        <ele>1401.758397</ele>
        <time>2022-05-26T19:10:32.334Z</time>
      </trkpt>
      <trkpt lat="42.96588" lon="0.31595">
        <ele>1402.612779</ele>
        <time>2022-05-26T19:10:36.596Z</time>
      </trkpt>
      <trkpt lat="42.96521" lon="0.31536">
        <ele>1402.180262</ele>
        <time>2022-05-26T19:10:53.407Z</time>
      </trkpt>
      <trkpt lat="42.96506" lon="0.31479">
        <ele>1401.928187</ele>
        <time>2022-05-26T19:11:00.632Z</time>
      </trkpt>
      <trkpt lat="42.96438" lon="0.31399">
        <ele>1401.511072</ele>
        <time>2022-05-26T19:11:13.827Z</time>
      </trkpt>
      <trkpt lat="42.96419" lon="0.3139">
        <ele>1401.449295</ele>
        <time>2022-05-26T19:11:17.186Z</time>
      </trkpt>
      <trkpt lat="42.96346" lon="0.31397">
        <ele>1401.229677</ele>
        <time>2022-05-26T19:11:29.690Z</time>
      </trkpt>
      <trkpt lat="42.96331" lon="0.31387">
        <ele>1401.177775</ele>
        <time>2022-05-26T19:11:32.982Z</time>
      </trkpt>
      <trkpt lat="42.96304" lon="0.31242">
        <ele>1404.096575</ele>
        <time>2022-05-26T19:12:11.138Z</time>
      </trkpt>
      <trkpt lat="42.96303" lon="0.31154">
        <ele>1406.755426</ele>
        <time>2022-05-26T19:12:37.253Z</time>
      </trkpt>
      <trkpt lat="42.96314" lon="0.31087">
        <ele>1408.694637</ele>
        <time>2022-05-26T19:12:58.136Z</time>
      </trkpt>
      <trkpt lat="42.96293" lon="0.30907">
        <ele>1411.743076</ele>
        <time>2022-05-26T19:13:42.525Z</time>
      </trkpt>
      <trkpt lat="42.96283" lon="0.30894">
        <ele>1412.051655</ele>
        <time>2022-05-26T19:13:45.748Z</time>
      </trkpt>
      <trkpt lat="42.96284" lon="0.30891">
        <ele>1412.116325</ele>
        <time>2022-05-26T19:13:46.112Z</time>
      </trkpt>
      <trkpt lat="42.96283" lon="0.30894">
        <ele>1412.180994</ele>
        <time>2022-05-26T19:13:47.388Z</time>
      </trkpt>
      <trkpt lat="42.96293" lon="0.30907">
        <ele>1412.489573</ele>
        <time>2022-05-26T19:13:49.776Z</time>
      </trkpt>
      <trkpt lat="42.96314" lon="0.31087">
        <ele>1408.305826</ele>
        <time>2022-05-26T19:14:09.141Z</time>
      </trkpt>
      <trkpt lat="42.96303" lon="0.31154">
        <ele>1406.596844</ele>
        <time>2022-05-26T19:14:15.903Z</time>
      </trkpt>
      <trkpt lat="42.96304" lon="0.31242">
        <ele>1404.365329</ele>
        <time>2022-05-26T19:14:24.549Z</time>
      </trkpt>
      <trkpt lat="42.96331" lon="0.31387">
        <ele>1400.564007</ele>
        <time>2022-05-26T19:14:40.138Z</time>
      </trkpt>
      <trkpt lat="42.96346" lon="0.31397">
        <ele>1400.394789</ele>
        <time>2022-05-26T19:14:43.839Z</time>
      </trkpt>
      <trkpt lat="42.96419" lon="0.3139">
        <ele>1401.311012</ele>
        <time>2022-05-26T19:15:01.642Z</time>
      </trkpt>
      <trkpt lat="42.96438" lon="0.31399">
        <ele>1401.568738</ele>
        <time>2022-05-26T19:15:06.992Z</time>
      </trkpt>
      <trkpt lat="42.96506" lon="0.31479">
        <ele>1402.436473</ele>
        <time>2022-05-26T19:15:35.776Z</time>
      </trkpt>
      <trkpt lat="42.96521" lon="0.31536">
        <ele>1402.011916</ele>
        <time>2022-05-26T19:15:47.843Z</time>
      </trkpt>
      <trkpt lat="42.96588" lon="0.31595">
        <ele>1401.259401</ele>
        <time>2022-05-26T19:16:03.165Z</time>
      </trkpt>
      <trkpt lat="42.96596" lon="0.31608">
        <ele>1401.145673</ele>
        <time>2022-05-26T19:16:04.851Z</time>
      </trkpt>
      <trkpt lat="42.96598" lon="0.31618">
        <ele>1401.069378</ele>
        <time>2022-05-26T19:16:05.992Z</time>
      </trkpt>
      <trkpt lat="42.96582" lon="0.31668">
        <ele>1399.51843</ele>
        <time>2022-05-26T19:16:11.276Z</time>
      </trkpt>
      <trkpt lat="42.96574" lon="0.31731">
        <ele>1395.563442</ele>
        <time>2022-05-26T19:16:17.132Z</time>
      </trkpt>
      <trkpt lat="42.96535" lon="0.31876">
        <ele>1385.866963</ele>
        <time>2022-05-26T19:16:30.931Z</time>
      </trkpt>
      <trkpt lat="42.9652" lon="0.31949">
        <ele>1382.090393</ele>
        <time>2022-05-26T19:16:37.678Z</time>
      </trkpt>
      <trkpt lat="42.96516" lon="0.31999">
        <ele>1379.636608</ele>
        <time>2022-05-26T19:16:42.350Z</time>
      </trkpt>
      <trkpt lat="42.96502" lon="0.32024">
        <ele>1378.121187</ele>
        <time>2022-05-26T19:16:45.361Z</time>
      </trkpt>
      <trkpt lat="42.96493" lon="0.32017">
        <ele>1377.428193</ele>
        <time>2022-05-26T19:16:46.762Z</time>
      </trkpt>
      <trkpt lat="42.96492" lon="0.31999">
        <ele>1376.539276</ele>
        <time>2022-05-26T19:16:48.724Z</time>
      </trkpt>
      <trkpt lat="42.96507" lon="0.31917">
        <ele>1372.889105</ele>
        <time>2022-05-26T19:16:57.633Z</time>
      </trkpt>
      <trkpt lat="42.96518" lon="0.31819">
        <ele>1370.101476</ele>
        <time>2022-05-26T19:17:07.638Z</time>
      </trkpt>
      <trkpt lat="42.96522" lon="0.31758">
        <ele>1368.360065</ele>
        <time>2022-05-26T19:17:14.427Z</time>
      </trkpt>
      <trkpt lat="42.96517" lon="0.31667">
        <ele>1365.602695</ele>
        <time>2022-05-26T19:17:23.777Z</time>
      </trkpt>
      <trkpt lat="42.96485" lon="0.31627">
        <ele>1363.52828</ele>
        <time>2022-05-26T19:17:29.723Z</time>
      </trkpt>
      <trkpt lat="42.96421" lon="0.31581">
        <ele>1360.084977</ele>
        <time>2022-05-26T19:17:39.418Z</time>
      </trkpt>
      <trkpt lat="42.96415" lon="0.31582">
        <ele>1359.801576</ele>
        <time>2022-05-26T19:17:40.236Z</time>
      </trkpt>
      <trkpt lat="42.9641" lon="0.31594">
        <ele>1359.295871</ele>
        <time>2022-05-26T19:17:41.696Z</time>
      </trkpt>
      <trkpt lat="42.9645" lon="0.31646">
        <ele>1355.002816</ele>
        <time>2022-05-26T19:17:49.120Z</time>
      </trkpt>
      <trkpt lat="42.96452" lon="0.31667">
        <ele>1353.273828</ele>
        <time>2022-05-26T19:17:51.212Z</time>
      </trkpt>
      <trkpt lat="42.96465" lon="0.31705">
        <ele>1349.90797</ele>
        <time>2022-05-26T19:17:55.047Z</time>
      </trkpt>
      <trkpt lat="42.96465" lon="0.31724">
        <ele>1348.410724</ele>
        <time>2022-05-26T19:17:56.732Z</time>
      </trkpt>
      <trkpt lat="42.96455" lon="0.31792">
        <ele>1342.853748</ele>
        <time>2022-05-26T19:18:02.728Z</time>
      </trkpt>
      <trkpt lat="42.96432" lon="0.31861">
        <ele>1335.709723</ele>
        <time>2022-05-26T19:18:09.228Z</time>
      </trkpt>
      <trkpt lat="42.96382" lon="0.31981">
        <ele>1316.753938</ele>
        <time>2022-05-26T19:18:20.822Z</time>
      </trkpt>
      <trkpt lat="42.96368" lon="0.32049">
        <ele>1307.146767</ele>
        <time>2022-05-26T19:18:26.669Z</time>
      </trkpt>
      <trkpt lat="42.96355" lon="0.32264">
        <ele>1281.890679</ele>
        <time>2022-05-26T19:18:44.920Z</time>
      </trkpt>
      <trkpt lat="42.96364" lon="0.32344">
        <ele>1275.0012</ele>
        <time>2022-05-26T19:18:52.044Z</time>
      </trkpt>
      <trkpt lat="42.96359" lon="0.32352">
        <ele>1274.599896</ele>
        <time>2022-05-26T19:18:52.953Z</time>
      </trkpt>
      <trkpt lat="42.96351" lon="0.32348">
        <ele>1274.14186</ele>
        <time>2022-05-26T19:18:54.011Z</time>
      </trkpt>
      <trkpt lat="42.96322" lon="0.32139">
        <ele>1266.696695</ele>
        <time>2022-05-26T19:19:16.519Z</time>
      </trkpt>
      <trkpt lat="42.96296" lon="0.32052">
        <ele>1266.661056</ele>
        <time>2022-05-26T19:19:32.385Z</time>
      </trkpt>
      <trkpt lat="42.96297" lon="0.31985">
        <ele>1266.635529</ele>
        <time>2022-05-26T19:19:44.476Z</time>
      </trkpt>
      <trkpt lat="42.96305" lon="0.31927">
        <ele>1266.612774</ele>
        <time>2022-05-26T19:19:54.258Z</time>
      </trkpt>
      <trkpt lat="42.96258" lon="0.31872">
        <ele>1264.677761</ele>
        <time>2022-05-26T19:20:06.476Z</time>
      </trkpt>
      <trkpt lat="42.9624" lon="0.31869">
        <ele>1264.083782</ele>
        <time>2022-05-26T19:20:09.409Z</time>
      </trkpt>
      <trkpt lat="42.96137" lon="0.32087">
        <ele>1253.367461</ele>
        <time>2022-05-26T19:20:34.582Z</time>
      </trkpt>
      <trkpt lat="42.96117" lon="0.3212">
        <ele>1250.77244</ele>
        <time>2022-05-26T19:20:38.448Z</time>
      </trkpt>
      <trkpt lat="42.96078" lon="0.32157">
        <ele>1246.722402</ele>
        <time>2022-05-26T19:20:44.330Z</time>
      </trkpt>
      <trkpt lat="42.96065" lon="0.32222">
        <ele>1240.354111</ele>
        <time>2022-05-26T19:20:50.069Z</time>
      </trkpt>
      <trkpt lat="42.96057" lon="0.32243">
        <ele>1237.777687</ele>
        <time>2022-05-26T19:20:52.105Z</time>
      </trkpt>
      <trkpt lat="42.96036" lon="0.32277">
        <ele>1232.9531</ele>
        <time>2022-05-26T19:20:55.886Z</time>
      </trkpt>
      <trkpt lat="42.96034" lon="0.32311">
        <ele>1229.274554</ele>
        <time>2022-05-26T19:20:58.781Z</time>
      </trkpt>
      <trkpt lat="42.96014" lon="0.32373">
        <ele>1221.933535</ele>
        <time>2022-05-26T19:21:04.608Z</time>
      </trkpt>
      <trkpt lat="42.96006" lon="0.32399">
        <ele>1218.82135</ele>
        <time>2022-05-26T19:21:07.048Z</time>
      </trkpt>
      <trkpt lat="42.95984" lon="0.3244">
        <ele>1213.222912</ele>
        <time>2022-05-26T19:21:11.338Z</time>
      </trkpt>
      <trkpt lat="42.95962" lon="0.32469">
        <ele>1208.496861</ele>
        <time>2022-05-26T19:21:14.951Z</time>
      </trkpt>
      <trkpt lat="42.95961" lon="0.32481">
        <ele>1207.236232</ele>
        <time>2022-05-26T19:21:15.908Z</time>
      </trkpt>
      <trkpt lat="42.95965" lon="0.32484">
        <ele>1206.582801</ele>
        <time>2022-05-26T19:21:16.413Z</time>
      </trkpt>
      <trkpt lat="42.96008" lon="0.32448">
        <ele>1198.899264</ele>
        <time>2022-05-26T19:21:22.252Z</time>
      </trkpt>
      <trkpt lat="42.96103" lon="0.32388">
        <ele>1182.684018</ele>
        <time>2022-05-26T19:21:34.650Z</time>
      </trkpt>
      <trkpt lat="42.9614" lon="0.32372">
        <ele>1176.568956</ele>
        <time>2022-05-26T19:21:39.197Z</time>
      </trkpt>
      <trkpt lat="42.96155" lon="0.32387">
        <ele>1173.587153</ele>
        <time>2022-05-26T19:21:41.394Z</time>
      </trkpt>
      <trkpt lat="42.96154" lon="0.32403">
        <ele>1171.751637</ele>
        <time>2022-05-26T19:21:42.749Z</time>
      </trkpt>
      <trkpt lat="42.96106" lon="0.32547">
        <ele>1151.681183</ele>
        <time>2022-05-26T19:21:56.056Z</time>
      </trkpt>
      <trkpt lat="42.96066" lon="0.3265">
        <ele>1135.437167</ele>
        <time>2022-05-26T19:22:05.916Z</time>
      </trkpt>
      <trkpt lat="42.96023" lon="0.32738">
        <ele>1121.59037</ele>
        <time>2022-05-26T19:22:14.690Z</time>
      </trkpt>
      <trkpt lat="42.96" lon="0.32789">
        <ele>1113.968904</ele>
        <time>2022-05-26T19:22:19.730Z</time>
      </trkpt>
      <trkpt lat="42.95982" lon="0.32861">
        <ele>1104.313685</ele>
        <time>2022-05-26T19:22:26.171Z</time>
      </trkpt>
      <trkpt lat="42.95947" lon="0.32893">
        <ele>1097.358625</ele>
        <time>2022-05-26T19:22:31.188Z</time>
      </trkpt>
      <trkpt lat="42.95936" lon="0.32976">
        <ele>1090.790234</ele>
        <time>2022-05-26T19:22:38.579Z</time>
      </trkpt>
      <trkpt lat="42.95936" lon="0.32987">
        <ele>1089.927835</ele>
        <time>2022-05-26T19:22:39.596Z</time>
      </trkpt>
      <trkpt lat="42.95942" lon="0.32996">
        <ele>1088.999076</ele>
        <time>2022-05-26T19:22:40.664Z</time>
      </trkpt>
      <trkpt lat="42.95984" lon="0.3301">
        <ele>1084.448937</ele>
        <time>2022-05-26T19:22:45.861Z</time>
      </trkpt>
      <trkpt lat="42.95999" lon="0.33024">
        <ele>1082.513914</ele>
        <time>2022-05-26T19:22:48.110Z</time>
      </trkpt>
      <trkpt lat="42.95999" lon="0.33043">
        <ele>1081.002637</ele>
        <time>2022-05-26T19:22:49.806Z</time>
      </trkpt>
      <trkpt lat="42.95986" lon="0.33052">
        <ele>1079.472242</ele>
        <time>2022-05-26T19:22:51.587Z</time>
      </trkpt>
      <trkpt lat="42.95943" lon="0.33065">
        <ele>1074.600631</ele>
        <time>2022-05-26T19:22:57.086Z</time>
      </trkpt>
      <trkpt lat="42.95905" lon="0.33104">
        <ele>1069.451805</ele>
        <time>2022-05-26T19:23:02.786Z</time>
      </trkpt>
      <trkpt lat="42.95864" lon="0.33114">
        <ele>1064.926689</ele>
        <time>2022-05-26T19:23:07.747Z</time>
      </trkpt>
      <trkpt lat="42.95817" lon="0.3316">
        <ele>1058.666249</ele>
        <time>2022-05-26T19:23:14.631Z</time>
      </trkpt>
      <trkpt lat="42.95766" lon="0.33221">
        <ele>1052.340651</ele>
        <time>2022-05-26T19:23:22.787Z</time>
      </trkpt>
      <trkpt lat="42.95716" lon="0.33248">
        <ele>1047.323999</ele>
        <time>2022-05-26T19:23:29.533Z</time>
      </trkpt>
      <trkpt lat="42.95671" lon="0.33335">
        <ele>1040.619171</ele>
        <time>2022-05-26T19:23:39.584Z</time>
      </trkpt>
      <trkpt lat="42.95639" lon="0.33368">
        <ele>1037.693043</ele>
        <time>2022-05-26T19:23:44.934Z</time>
      </trkpt>
      <trkpt lat="42.95552" lon="0.33432">
        <ele>1030.546086</ele>
        <time>2022-05-26T19:23:57.298Z</time>
      </trkpt>
      <trkpt lat="42.95534" lon="0.33435">
        <ele>1029.247666</ele>
        <time>2022-05-26T19:23:59.526Z</time>
      </trkpt>
      <trkpt lat="42.95525" lon="0.33443">
        <ele>1028.487741</ele>
        <time>2022-05-26T19:24:00.944Z</time>
      </trkpt>
      <trkpt lat="42.95517" lon="0.33493">
        <ele>1025.823838</ele>
        <time>2022-05-26T19:24:05.709Z</time>
      </trkpt>
      <trkpt lat="42.95495" lon="0.3357">
        <ele>1021.475902</ele>
        <time>2022-05-26T19:24:13.630Z</time>
      </trkpt>
      <trkpt lat="42.9548" lon="0.33668">
        <ele>1016.304683</ele>
        <time>2022-05-26T19:24:22.829Z</time>
      </trkpt>
      <trkpt lat="42.95475" lon="0.33679">
        <ele>1015.651622</ele>
        <time>2022-05-26T19:24:24.119Z</time>
      </trkpt>
      <trkpt lat="42.95435" lon="0.33712">
        <ele>1012.62247</ele>
        <time>2022-05-26T19:24:30.052Z</time>
      </trkpt>
      <trkpt lat="42.95421" lon="0.33738">
        <ele>1011.055919</ele>
        <time>2022-05-26T19:24:33.271Z</time>
      </trkpt>
      <trkpt lat="42.95427" lon="0.33757">
        <ele>1010.067921</ele>
        <time>2022-05-26T19:24:35.343Z</time>
      </trkpt>
      <trkpt lat="42.95487" lon="0.33811">
        <ele>1005.405928</ele>
        <time>2022-05-26T19:24:44.871Z</time>
      </trkpt>
      <trkpt lat="42.95514" lon="0.33895">
        <ele>998.943002</ele>
        <time>2022-05-26T19:24:53.198Z</time>
      </trkpt>
      <trkpt lat="42.95513" lon="0.33916">
        <ele>997.380917</ele>
        <time>2022-05-26T19:24:55.067Z</time>
      </trkpt>
      <trkpt lat="42.95481" lon="0.33965">
        <ele>992.479073</ele>
        <time>2022-05-26T19:25:00.920Z</time>
      </trkpt>
      <trkpt lat="42.95483" lon="0.33983">
        <ele>991.15356</ele>
        <time>2022-05-26T19:25:02.464Z</time>
      </trkpt>
      <trkpt lat="42.95551" lon="0.34025">
        <ele>983.303451</ele>
        <time>2022-05-26T19:25:11.388Z</time>
      </trkpt>
      <trkpt lat="42.95589" lon="0.34091">
        <ele>976.369873</ele>
        <time>2022-05-26T19:25:18.910Z</time>
      </trkpt>
      <trkpt lat="42.95593" lon="0.34122">
        <ele>973.80948</ele>
        <time>2022-05-26T19:25:21.608Z</time>
      </trkpt>
      <trkpt lat="42.95573" lon="0.34154">
        <ele>970.29574</ele>
        <time>2022-05-26T19:25:25.317Z</time>
      </trkpt>
      <trkpt lat="42.95569" lon="0.34193">
        <ele>967.132445</ele>
        <time>2022-05-26T19:25:28.685Z</time>
      </trkpt>
      <trkpt lat="42.95542" lon="0.34237">
        <ele>962.835866</ele>
        <time>2022-05-26T19:25:33.813Z</time>
      </trkpt>
      <trkpt lat="42.95545" lon="0.3426">
        <ele>961.131028</ele>
        <time>2022-05-26T19:25:35.842Z</time>
      </trkpt>
      <trkpt lat="42.9554" lon="0.34299">
        <ele>958.185957</ele>
        <time>2022-05-26T19:25:39.473Z</time>
      </trkpt>
      <trkpt lat="42.95547" lon="0.34295">
        <ele>957.410761</ele>
        <time>2022-05-26T19:25:40.370Z</time>
      </trkpt>
      <trkpt lat="42.95558" lon="0.34255">
        <ele>954.319743</ele>
        <time>2022-05-26T19:25:44.189Z</time>
      </trkpt>
      <trkpt lat="42.95606" lon="0.34215">
        <ele>948.649504</ele>
        <time>2022-05-26T19:25:51.080Z</time>
      </trkpt>
      <trkpt lat="42.95627" lon="0.34149">
        <ele>943.506302</ele>
        <time>2022-05-26T19:25:57.614Z</time>
      </trkpt>
      <trkpt lat="42.95643" lon="0.34116">
        <ele>940.694259</ele>
        <time>2022-05-26T19:26:01.292Z</time>
      </trkpt>
      <trkpt lat="42.95652" lon="0.34066">
        <ele>937.081819</ele>
        <time>2022-05-26T19:26:05.952Z</time>
      </trkpt>
      <trkpt lat="42.95633" lon="0.33994">
        <ele>931.656806</ele>
        <time>2022-05-26T19:26:12.691Z</time>
      </trkpt>
      <trkpt lat="42.9564" lon="0.33983">
        <ele>930.463368</ele>
        <time>2022-05-26T19:26:14.020Z</time>
      </trkpt>
      <trkpt lat="42.95648" lon="0.3399">
        <ele>929.159782</ele>
        <time>2022-05-26T19:26:15.159Z</time>
      </trkpt>
      <trkpt lat="42.95656" lon="0.34019">
        <ele>926.073878</ele>
        <time>2022-05-26T19:26:17.860Z</time>
      </trkpt>
      <trkpt lat="42.95743" lon="0.34155">
        <ele>907.957668</ele>
        <time>2022-05-26T19:26:33.424Z</time>
      </trkpt>
      <trkpt lat="42.95791" lon="0.34208">
        <ele>900.17359</ele>
        <time>2022-05-26T19:26:40.581Z</time>
      </trkpt>
      <trkpt lat="42.95795" lon="0.34234">
        <ele>897.687566</ele>
        <time>2022-05-26T19:26:42.920Z</time>
      </trkpt>
      <trkpt lat="42.95789" lon="0.34286">
        <ele>892.948562</ele>
        <time>2022-05-26T19:26:47.464Z</time>
      </trkpt>
      <trkpt lat="42.95794" lon="0.34367">
        <ele>885.566339</ele>
        <time>2022-05-26T19:26:54.672Z</time>
      </trkpt>
      <trkpt lat="42.9579" lon="0.344">
        <ele>882.497035</ele>
        <time>2022-05-26T19:26:57.732Z</time>
      </trkpt>
      <trkpt lat="42.95821" lon="0.34506">
        <ele>872.487724</ele>
        <time>2022-05-26T19:27:07.851Z</time>
      </trkpt>
      <trkpt lat="42.95891" lon="0.34801">
        <ele>842.087876</ele>
        <time>2022-05-26T19:27:34.585Z</time>
      </trkpt>
      <trkpt lat="42.95924" lon="0.34843">
        <ele>835.825049</ele>
        <time>2022-05-26T19:27:39.812Z</time>
      </trkpt>
      <trkpt lat="42.96029" lon="0.34928">
        <ele>820.694544</ele>
        <time>2022-05-26T19:27:54.116Z</time>
      </trkpt>
      <trkpt lat="42.96047" lon="0.34961">
        <ele>816.859731</ele>
        <time>2022-05-26T19:27:57.836Z</time>
      </trkpt>
      <trkpt lat="42.961" lon="0.35099">
        <ele>808.46822</ele>
        <time>2022-05-26T19:28:12.313Z</time>
      </trkpt>
      <trkpt lat="42.96114" lon="0.35151">
        <ele>805.957519</ele>
        <time>2022-05-26T19:28:17.878Z</time>
      </trkpt>
      <trkpt lat="42.96144" lon="0.35213">
        <ele>802.616169</ele>
        <time>2022-05-26T19:28:25.597Z</time>
      </trkpt>
      <trkpt lat="42.9619" lon="0.3526">
        <ele>799.418524</ele>
        <time>2022-05-26T19:28:33.549Z</time>
      </trkpt>
      <trkpt lat="42.96192" lon="0.35283">
        <ele>798.502757</ele>
        <time>2022-05-26T19:28:35.780Z</time>
      </trkpt>
      <trkpt lat="42.96206" lon="0.35341">
        <ele>796.030776</ele>
        <time>2022-05-26T19:28:41.711Z</time>
      </trkpt>
      <trkpt lat="42.96262" lon="0.35476">
        <ele>788.417664</ele>
        <time>2022-05-26T19:28:56.237Z</time>
      </trkpt>
      <trkpt lat="42.96263" lon="0.35498">
        <ele>787.15804</ele>
        <time>2022-05-26T19:28:58.298Z</time>
      </trkpt>
      <trkpt lat="42.96222" lon="0.35646">
        <ele>778.311451</ele>
        <time>2022-05-26T19:29:12.758Z</time>
      </trkpt>
      <trkpt lat="42.96199" lon="0.35762">
        <ele>771.909054</ele>
        <time>2022-05-26T19:29:24.010Z</time>
      </trkpt>
      <trkpt lat="42.96147" lon="0.35904">
        <ele>764.164662</ele>
        <time>2022-05-26T19:29:38.803Z</time>
      </trkpt>
      <trkpt lat="42.96132" lon="0.35983">
        <ele>760.827353</ele>
        <time>2022-05-26T19:29:46.853Z</time>
      </trkpt>
      <trkpt lat="42.96122" lon="0.36066">
        <ele>757.419266</ele>
        <time>2022-05-26T19:29:55.228Z</time>
      </trkpt>
      <trkpt lat="42.96071" lon="0.36139">
        <ele>753.901442</ele>
        <time>2022-05-26T19:30:05.229Z</time>
      </trkpt>
      <trkpt lat="42.96058" lon="0.36167">
        <ele>752.796367</ele>
        <time>2022-05-26T19:30:08.566Z</time>
      </trkpt>
      <trkpt lat="42.96091" lon="0.36231">
        <ele>750.234282</ele>
        <time>2022-05-26T19:30:16.445Z</time>
      </trkpt>
      <trkpt lat="42.961" lon="0.36266">
        <ele>749.034269</ele>
        <time>2022-05-26T19:30:20.249Z</time>
      </trkpt>
      <trkpt lat="42.96096" lon="0.36316">
        <ele>747.185259</ele>
        <time>2022-05-26T19:30:25.536Z</time>
      </trkpt>
      <trkpt lat="42.96079" lon="0.36359">
        <ele>745.226974</ele>
        <time>2022-05-26T19:30:30.536Z</time>
      </trkpt>
      <trkpt lat="42.96075" lon="0.36407">
        <ele>743.290942</ele>
        <time>2022-05-26T19:30:35.309Z</time>
      </trkpt>
      <trkpt lat="42.96058" lon="0.3648">
        <ele>740.210266</ele>
        <time>2022-05-26T19:30:42.648Z</time>
      </trkpt>
      <trkpt lat="42.96065" lon="0.36562">
        <ele>736.167524</ele>
        <time>2022-05-26T19:30:50.432Z</time>
      </trkpt>
      <trkpt lat="42.96085" lon="0.36695">
        <ele>728.054428</ele>
        <time>2022-05-26T19:31:02.849Z</time>
      </trkpt>
      <trkpt lat="42.96085" lon="0.36723">
        <ele>726.383386</ele>
        <time>2022-05-26T19:31:05.370Z</time>
      </trkpt>
      <trkpt lat="42.9611" lon="0.36815">
        <ele>720.903093</ele>
        <time>2022-05-26T19:31:14.228Z</time>
      </trkpt>
      <trkpt lat="42.96103" lon="0.36959">
        <ele>713.42437</ele>
        <time>2022-05-26T19:31:27.654Z</time>
      </trkpt>
      <trkpt lat="42.96116" lon="0.37104">
        <ele>708.191631</ele>
        <time>2022-05-26T19:31:42.400Z</time>
      </trkpt>
      <trkpt lat="42.9609" lon="0.37202">
        <ele>705.288549</ele>
        <time>2022-05-26T19:31:53.859Z</time>
      </trkpt>
      <trkpt lat="42.96085" lon="0.37247">
        <ele>704.030642</ele>
        <time>2022-05-26T19:31:58.646Z</time>
      </trkpt>
      <trkpt lat="42.96064" lon="0.37288">
        <ele>702.060371</ele>
        <time>2022-05-26T19:32:03.855Z</time>
      </trkpt>
      <trkpt lat="42.96019" lon="0.37353">
        <ele>698.524916</ele>
        <time>2022-05-26T19:32:12.869Z</time>
      </trkpt>
      <trkpt lat="42.95998" lon="0.37404">
        <ele>696.188939</ele>
        <time>2022-05-26T19:32:18.507Z</time>
      </trkpt>
      <trkpt lat="42.95983" lon="0.37542">
        <ele>689.34014</ele>
        <time>2022-05-26T19:32:31.307Z</time>
      </trkpt>
      <trkpt lat="42.95989" lon="0.37584">
        <ele>687.091111</ele>
        <time>2022-05-26T19:32:35.136Z</time>
      </trkpt>
      <trkpt lat="42.95967" lon="0.3761">
        <ele>684.973699</ele>
        <time>2022-05-26T19:32:38.776Z</time>
      </trkpt>
      <trkpt lat="42.95939" lon="0.37624">
        <ele>682.753679</ele>
        <time>2022-05-26T19:32:42.653Z</time>
      </trkpt>
      <trkpt lat="42.95908" lon="0.37645">
        <ele>680.429339</ele>
        <time>2022-05-26T19:32:47.369Z</time>
      </trkpt>
      <trkpt lat="42.95882" lon="0.37653">
        <ele>678.942</ele>
        <time>2022-05-26T19:32:51.257Z</time>
      </trkpt>
      <trkpt lat="42.9583" lon="0.37654">
        <ele>675.989144</ele>
        <time>2022-05-26T19:32:58.558Z</time>
      </trkpt>
      <trkpt lat="42.95815" lon="0.37647">
        <ele>675.098572</ele>
        <time>2022-05-26T19:33:00.529Z</time>
      </trkpt>
      <trkpt lat="42.95807" lon="0.37637">
        <ele>674.46877</ele>
        <time>2022-05-26T19:33:02.000Z</time>
      </trkpt>
      <trkpt lat="42.95791" lon="0.37621">
        <ele>673.34552</ele>
        <time>2022-05-26T19:33:04.581Z</time>
      </trkpt>
      <trkpt lat="42.95768" lon="0.37599">
        <ele>671.763222</ele>
        <time>2022-05-26T19:33:08.261Z</time>
      </trkpt>
      <trkpt lat="42.95751" lon="0.37591">
        <ele>670.587336</ele>
        <time>2022-05-26T19:33:10.562Z</time>
      </trkpt>
      <trkpt lat="42.95737" lon="0.37584">
        <ele>669.197495</ele>
        <time>2022-05-26T19:33:12.542Z</time>
      </trkpt>
      <trkpt lat="42.95736" lon="0.37591">
        <ele>668.732536</ele>
        <time>2022-05-26T19:33:13.160Z</time>
      </trkpt>
      <trkpt lat="42.95734" lon="0.376">
        <ele>668.062673</ele>
        <time>2022-05-26T19:33:14.049Z</time>
      </trkpt>
      <trkpt lat="42.95751" lon="0.37643">
        <ele>664.739987</ele>
        <time>2022-05-26T19:33:17.210Z</time>
      </trkpt>
      <trkpt lat="42.95776" lon="0.37711">
        <ele>659.632089</ele>
        <time>2022-05-26T19:33:22.058Z</time>
      </trkpt>
      <trkpt lat="42.9578" lon="0.37719">
        <ele>659.005921</ele>
        <time>2022-05-26T19:33:22.644Z</time>
      </trkpt>
      <trkpt lat="42.95792" lon="0.37746">
        <ele>656.827762</ele>
        <time>2022-05-26T19:33:24.650Z</time>
      </trkpt>
      <trkpt lat="42.95835" lon="0.37805">
        <ele>652.416538</ele>
        <time>2022-05-26T19:33:29.771Z</time>
      </trkpt>
      <trkpt lat="42.95862" lon="0.3782">
        <ele>650.716641</ele>
        <time>2022-05-26T19:33:32.320Z</time>
      </trkpt>
      <trkpt lat="42.959" lon="0.37828">
        <ele>648.434557</ele>
        <time>2022-05-26T19:33:35.929Z</time>
      </trkpt>
      <trkpt lat="42.95967" lon="0.3783">
        <ele>644.545831</ele>
        <time>2022-05-26T19:33:43.088Z</time>
      </trkpt>
      <trkpt lat="42.95992" lon="0.37822">
        <ele>643.710613</ele>
        <time>2022-05-26T19:33:45.894Z</time>
      </trkpt>
      <trkpt lat="42.96021" lon="0.37803">
        <ele>643.277761</ele>
        <time>2022-05-26T19:33:49.754Z</time>
      </trkpt>
      <trkpt lat="42.96051" lon="0.37722">
        <ele>642.36975</ele>
        <time>2022-05-26T19:33:57.924Z</time>
      </trkpt>
      <trkpt lat="42.9607" lon="0.37713">
        <ele>642.102574</ele>
        <time>2022-05-26T19:34:00.515Z</time>
      </trkpt>
      <trkpt lat="42.96079" lon="0.37716">
        <ele>641.975746</ele>
        <time>2022-05-26T19:34:01.653Z</time>
      </trkpt>
      <trkpt lat="42.96085" lon="0.37723">
        <ele>641.860667</ele>
        <time>2022-05-26T19:34:02.463Z</time>
      </trkpt>
      <trkpt lat="42.96091" lon="0.37748">
        <ele>641.599751</ele>
        <time>2022-05-26T19:34:05.106Z</time>
      </trkpt>
      <trkpt lat="42.96091" lon="0.3778">
        <ele>641.260672</ele>
        <time>2022-05-26T19:34:07.699Z</time>
      </trkpt>
      <trkpt lat="42.96082" lon="0.3783">
        <ele>640.6833</ele>
        <time>2022-05-26T19:34:11.886Z</time>
      </trkpt>
      <trkpt lat="42.96084" lon="0.3787">
        <ele>640.220897</ele>
        <time>2022-05-26T19:34:15.112Z</time>
      </trkpt>
      <trkpt lat="42.9609" lon="0.37933">
        <ele>639.505196</ele>
        <time>2022-05-26T19:34:20.285Z</time>
      </trkpt>
      <trkpt lat="42.96165" lon="0.37936">
        <ele>638.675196</ele>
        <time>2022-05-26T19:34:29.331Z</time>
      </trkpt>
      <trkpt lat="42.96205" lon="0.37932">
        <ele>638.65486</ele>
        <time>2022-05-26T19:34:34.426Z</time>
      </trkpt>
      <trkpt lat="42.96234" lon="0.37922">
        <ele>638.639222</ele>
        <time>2022-05-26T19:34:39.290Z</time>
      </trkpt>
      <trkpt lat="42.96301" lon="0.37886">
        <ele>638.602404</ele>
        <time>2022-05-26T19:34:51.712Z</time>
      </trkpt>
      <trkpt lat="42.96303" lon="0.37885">
        <ele>638.601404</ele>
        <time>2022-05-26T19:34:52.044Z</time>
      </trkpt>
      <trkpt lat="42.96312" lon="0.37881">
        <ele>638.596409</ele>
        <time>2022-05-26T19:34:53.608Z</time>
      </trkpt>
      <trkpt lat="42.96313" lon="0.3788">
        <ele>638.59583</ele>
        <time>2022-05-26T19:34:53.793Z</time>
      </trkpt>
      <trkpt lat="42.96405" lon="0.37831">
        <ele>638.757476</ele>
        <time>2022-05-26T19:35:09.429Z</time>
      </trkpt>
      <trkpt lat="42.96408" lon="0.3783">
        <ele>638.761615</ele>
        <time>2022-05-26T19:35:09.767Z</time>
      </trkpt>
      <trkpt lat="42.96553" lon="0.37751">
        <ele>638.899762</ele>
        <time>2022-05-26T19:35:33.248Z</time>
      </trkpt>
      <trkpt lat="42.9657" lon="0.37739">
        <ele>638.899762</ele>
        <time>2022-05-26T19:35:36.123Z</time>
      </trkpt>
      <trkpt lat="42.96611" lon="0.37718">
        <ele>638.899762</ele>
        <time>2022-05-26T19:35:42.624Z</time>
      </trkpt>
      <trkpt lat="42.96638" lon="0.37704">
        <ele>638.899762</ele>
        <time>2022-05-26T19:35:47.021Z</time>
      </trkpt>
      <trkpt lat="42.96642" lon="0.37702">
        <ele>638.899762</ele>
        <time>2022-05-26T19:35:47.699Z</time>
      </trkpt>
      <trkpt lat="42.96654" lon="0.37696">
        <ele>638.899762</ele>
        <time>2022-05-26T19:35:49.692Z</time>
      </trkpt>
      <trkpt lat="42.96667" lon="0.37689">
        <ele>638.899762</ele>
        <time>2022-05-26T19:35:51.956Z</time>
      </trkpt>
      <trkpt lat="42.9667" lon="0.37687">
        <ele>638.899762</ele>
        <time>2022-05-26T19:35:52.532Z</time>
      </trkpt>
      <trkpt lat="42.96693" lon="0.37676">
        <ele>638.899762</ele>
        <time>2022-05-26T19:35:56.307Z</time>
      </trkpt>
    </trkseg>
  </trk>
</gpx>